sensor_id;sensor_type;location;lat;lon;timestamp;temperature;humidity
37356;DHT22;48747;50.250;18.848;2023-03-01T00:00:45;-1.70;99.90
37356;DHT22;48747;50.250;18.848;2023-03-01T00:04:59;-1.60;99.90
37356;DHT22;48747;50.250;18.848;2023-03-01T00:07:09;-1.60;99.90
37356;DHT22;48747;50.250;18.848;2023-03-01T00:09:16;-1.50;99.90
37356;DHT22;48747;50.250;18.848;2023-03-01T00:11:32;-1.50;99.90
37356;DHT22;48747;50.250;18.848;2023-03-01T00:13:39;-1.60;99.90
37356;DHT22;48747;50.250;18.848;2023-03-01T00:15:48;-1.60;99.90
37356;DHT22;48747;50.250;18.848;2023-03-01T00:18:02;-1.60;99.90
37356;DHT22;48747;50.250;18.848;2023-03-01T00:20:23;-1.60;99.90
37356;DHT22;48747;50.250;18.848;2023-03-01T00:22:17;-1.60;99.90
37356;DHT22;48747;50.250;18.848;2023-03-01T00:24:24;-1.60;99.90
37356;DHT22;48747;50.250;18.848;2023-03-01T00:26:36;-1.60;99.90
37356;DHT22;48747;50.250;18.848;2023-03-01T00:28:52;-1.60;99.90
37356;DHT22;48747;50.250;18.848;2023-03-01T00:31:19;-1.50;99.90
37356;DHT22;48747;50.250;18.848;2023-03-01T00:37:22;-1.60;99.90
37356;DHT22;48747;50.250;18.848;2023-03-01T00:39:38;-1.60;99.90
37356;DHT22;48747;50.250;18.848;2023-03-01T00:43:51;-1.90;99.90
37356;DHT22;48747;50.250;18.848;2023-03-01T00:45:56;-2.00;99.90
37356;DHT22;48747;50.250;18.848;2023-03-01T00:50:11;-2.30;99.90
37356;DHT22;48747;50.250;18.848;2023-03-01T00:54:36;-2.40;99.90
37356;DHT22;48747;50.250;18.848;2023-03-01T00:58:48;-2.50;99.90
37356;DHT22;48747;50.250;18.848;2023-03-01T01:00:46;-2.60;99.90
37356;DHT22;48747;50.250;18.848;2023-03-01T01:02:55;-2.60;99.90
37356;DHT22;48747;50.250;18.848;2023-03-01T01:07:08;-2.60;99.90
37356;DHT22;48747;50.250;18.848;2023-03-01T01:11:36;-2.50;99.90
37356;DHT22;48747;50.250;18.848;2023-03-01T01:13:40;-2.40;99.90
37356;DHT22;48747;50.250;18.848;2023-03-01T01:15:42;-2.40;99.90
37356;DHT22;48747;50.250;18.848;2023-03-01T01:17:49;-2.40;99.90
37356;DHT22;48747;50.250;18.848;2023-03-01T01:19:55;-2.50;99.90
37356;DHT22;48747;50.250;18.848;2023-03-01T01:22:04;-2.50;99.90
37356;DHT22;48747;50.250;18.848;2023-03-01T01:24:20;-2.50;99.90
37356;DHT22;48747;50.250;18.848;2023-03-01T01:26:26;-2.60;99.90
37356;DHT22;48747;50.250;18.848;2023-03-01T01:30:42;-2.50;99.90
37356;DHT22;48747;50.250;18.848;2023-03-01T01:35:10;-2.70;99.90
37356;DHT22;48747;50.250;18.848;2023-03-01T01:37:22;-2.80;99.90
37356;DHT22;48747;50.250;18.848;2023-03-01T01:39:28;-2.80;99.90
37356;DHT22;48747;50.250;18.848;2023-03-01T01:41:44;-2.80;99.90
37356;DHT22;48747;50.250;18.848;2023-03-01T01:46:14;-2.80;99.90
37356;DHT22;48747;50.250;18.848;2023-03-01T01:48:18;-2.90;99.90
37356;DHT22;48747;50.250;18.848;2023-03-01T01:50:27;-2.90;99.90
37356;DHT22;48747;50.250;18.848;2023-03-01T01:52:44;-2.90;99.90
37356;DHT22;48747;50.250;18.848;2023-03-01T01:56:52;-2.80;99.90
37356;DHT22;48747;50.250;18.848;2023-03-01T01:59:04;-2.80;99.90
37356;DHT22;48747;50.250;18.848;2023-03-01T02:01:11;-2.80;99.90
37356;DHT22;48747;50.250;18.848;2023-03-01T02:03:10;-2.80;99.90
37356;DHT22;48747;50.250;18.848;2023-03-01T02:05:36;-2.80;99.90
37356;DHT22;48747;50.250;18.848;2023-03-01T02:07:39;-2.80;99.90
37356;DHT22;48747;50.250;18.848;2023-03-01T02:09:51;-2.80;99.90
37356;DHT22;48747;50.250;18.848;2023-03-01T02:11:55;-2.90;99.90
37356;DHT22;48747;50.250;18.848;2023-03-01T02:14:05;-3.00;99.90
37356;DHT22;48747;50.250;18.848;2023-03-01T02:16:25;-3.10;99.90
37356;DHT22;48747;50.250;18.848;2023-03-01T02:18:23;-3.20;99.90
37356;DHT22;48747;50.250;18.848;2023-03-01T02:23:18;-3.30;99.90
37356;DHT22;48747;50.250;18.848;2023-03-01T02:30:24;-3.30;99.90
37356;DHT22;48747;50.250;18.848;2023-03-01T02:39:20;-3.50;99.90
37356;DHT22;48747;50.250;18.848;2023-03-01T02:41:32;-3.50;99.90
37356;DHT22;48747;50.250;18.848;2023-03-01T02:43:42;-3.60;99.90
37356;DHT22;48747;50.250;18.848;2023-03-01T02:45:59;-3.60;99.90
37356;DHT22;48747;50.250;18.848;2023-03-01T02:48:13;-3.50;99.90
37356;DHT22;48747;50.250;18.848;2023-03-01T02:55:01;-3.50;99.90
37356;DHT22;48747;50.250;18.848;2023-03-01T02:57:06;-3.50;99.90
37356;DHT22;48747;50.250;18.848;2023-03-01T02:59:21;-3.50;99.90
37356;DHT22;48747;50.250;18.848;2023-03-01T03:01:35;-3.50;99.90
37356;DHT22;48747;50.250;18.848;2023-03-01T03:03:28;-3.50;99.90
37356;DHT22;48747;50.250;18.848;2023-03-01T03:07:47;-3.40;99.90
37356;DHT22;48747;50.250;18.848;2023-03-01T03:09:53;-3.40;99.90
37356;DHT22;48747;50.250;18.848;2023-03-01T03:11:55;-3.40;99.90
37356;DHT22;48747;50.250;18.848;2023-03-01T03:14:09;-3.40;99.90
37356;DHT22;48747;50.250;18.848;2023-03-01T03:16:24;-3.40;99.90
37356;DHT22;48747;50.250;18.848;2023-03-01T03:18:35;-3.40;99.90
37356;DHT22;48747;50.250;18.848;2023-03-01T03:20:42;-3.40;99.90
37356;DHT22;48747;50.250;18.848;2023-03-01T03:22:55;-3.30;99.90
37356;DHT22;48747;50.250;18.848;2023-03-01T03:27:19;-3.20;99.90
37356;DHT22;48747;50.250;18.848;2023-03-01T03:29:25;-3.20;99.90
37356;DHT22;48747;50.250;18.848;2023-03-01T03:31:26;-3.20;99.90
37356;DHT22;48747;50.250;18.848;2023-03-01T03:35:56;-3.00;99.90
37356;DHT22;48747;50.250;18.848;2023-03-01T03:38:16;-2.80;99.90
37356;DHT22;48747;50.250;18.848;2023-03-01T03:42:32;-2.80;99.90
37356;DHT22;48747;50.250;18.848;2023-03-01T03:44:34;-2.80;99.90
37356;DHT22;48747;50.250;18.848;2023-03-01T03:46:55;-2.80;99.90
37356;DHT22;48747;50.250;18.848;2023-03-01T03:48:55;-2.80;99.90
37356;DHT22;48747;50.250;18.848;2023-03-01T03:51:09;-2.90;99.90
37356;DHT22;48747;50.250;18.848;2023-03-01T03:53:25;-2.90;99.90
37356;DHT22;48747;50.250;18.848;2023-03-01T03:55:40;-3.00;99.90
37356;DHT22;48747;50.250;18.848;2023-03-01T03:59:33;-3.10;99.90
37356;DHT22;48747;50.250;18.848;2023-03-01T04:01:42;-3.20;99.90
37356;DHT22;48747;50.250;18.848;2023-03-01T04:03:48;-3.30;99.90
37356;DHT22;48747;50.250;18.848;2023-03-01T04:06:00;-3.30;99.90
37356;DHT22;48747;50.250;18.848;2023-03-01T04:08:13;-3.40;99.90
37356;DHT22;48747;50.250;18.848;2023-03-01T04:12:31;-3.60;99.90
37356;DHT22;48747;50.250;18.848;2023-03-01T04:16:45;-3.70;99.90
37356;DHT22;48747;50.250;18.848;2023-03-01T04:18:57;-3.70;99.90
37356;DHT22;48747;50.250;18.848;2023-03-01T04:20:59;-3.70;99.90
37356;DHT22;48747;50.250;18.848;2023-03-01T04:25:23;-3.60;99.90
37356;DHT22;48747;50.250;18.848;2023-03-01T04:27:30;-3.60;99.90
37356;DHT22;48747;50.250;18.848;2023-03-01T04:32:02;-3.50;99.90
37356;DHT22;48747;50.250;18.848;2023-03-01T04:34:11;-3.50;99.90
37356;DHT22;48747;50.250;18.848;2023-03-01T04:36:08;-3.50;99.90
37356;DHT22;48747;50.250;18.848;2023-03-01T04:38:34;-3.60;99.90
37356;DHT22;48747;50.250;18.848;2023-03-01T04:40:46;-3.50;99.90
37356;DHT22;48747;50.250;18.848;2023-03-01T04:42:49;-3.60;99.90
37356;DHT22;48747;50.250;18.848;2023-03-01T04:44:52;-3.60;99.90
37356;DHT22;48747;50.250;18.848;2023-03-01T04:47:38;-3.60;99.90
37356;DHT22;48747;50.250;18.848;2023-03-01T04:49:33;-3.60;99.90
37356;DHT22;48747;50.250;18.848;2023-03-01T04:51:28;-3.70;99.90
37356;DHT22;48747;50.250;18.848;2023-03-01T04:53:40;-3.60;99.90
37356;DHT22;48747;50.250;18.848;2023-03-01T04:57:48;-3.70;99.90
37356;DHT22;48747;50.250;18.848;2023-03-01T05:01:59;-3.80;99.90
37356;DHT22;48747;50.250;18.848;2023-03-01T05:04:16;-3.80;99.90
37356;DHT22;48747;50.250;18.848;2023-03-01T05:06:19;-3.80;99.90
37356;DHT22;48747;50.250;18.848;2023-03-01T05:08:24;-3.80;99.90
37356;DHT22;48747;50.250;18.848;2023-03-01T05:10:52;-3.80;99.90
37356;DHT22;48747;50.250;18.848;2023-03-01T05:14:49;-3.90;99.90
37356;DHT22;48747;50.250;18.848;2023-03-01T05:17:02;-3.90;99.90
37356;DHT22;48747;50.250;18.848;2023-03-01T05:19:22;-3.90;99.90
37356;DHT22;48747;50.250;18.848;2023-03-01T05:21:33;-3.90;99.90
37356;DHT22;48747;50.250;18.848;2023-03-01T05:25:43;-3.80;99.90
37356;DHT22;48747;50.250;18.848;2023-03-01T05:28:09;-3.90;99.90
37356;DHT22;48747;50.250;18.848;2023-03-01T05:30:07;-3.80;99.90
37356;DHT22;48747;50.250;18.848;2023-03-01T05:32:21;-3.80;99.90
37356;DHT22;48747;50.250;18.848;2023-03-01T05:34:38;-3.80;99.90
37356;DHT22;48747;50.250;18.848;2023-03-01T05:36:47;-3.80;99.90
37356;DHT22;48747;50.250;18.848;2023-03-01T05:38:52;-3.80;99.90
37356;DHT22;48747;50.250;18.848;2023-03-01T05:40:55;-3.80;99.90
37356;DHT22;48747;50.250;18.848;2023-03-01T05:43:07;-3.80;99.90
37356;DHT22;48747;50.250;18.848;2023-03-01T05:47:24;-3.70;99.90
37356;DHT22;48747;50.250;18.848;2023-03-01T05:49:53;-3.70;99.90
37356;DHT22;48747;50.250;18.848;2023-03-01T05:51:37;-3.60;99.90
37356;DHT22;48747;50.250;18.848;2023-03-01T05:56:16;-3.60;99.90
37356;DHT22;48747;50.250;18.848;2023-03-01T05:58:14;-3.60;99.90
37356;DHT22;48747;50.250;18.848;2023-03-01T06:06:42;-3.80;99.90
37356;DHT22;48747;50.250;18.848;2023-03-01T06:08:51;-3.80;99.90
37356;DHT22;48747;50.250;18.848;2023-03-01T06:11:06;-3.70;99.90
37356;DHT22;48747;50.250;18.848;2023-03-01T06:15:17;-3.60;99.90
37356;DHT22;48747;50.250;18.848;2023-03-01T06:17:40;-3.50;99.90
37356;DHT22;48747;50.250;18.848;2023-03-01T06:19:44;-3.50;99.90
37356;DHT22;48747;50.250;18.848;2023-03-01T06:22:01;-3.50;99.90
37356;DHT22;48747;50.250;18.848;2023-03-01T06:24:08;-3.50;99.90
37356;DHT22;48747;50.250;18.848;2023-03-01T06:26:19;-3.40;99.90
37356;DHT22;48747;50.250;18.848;2023-03-01T06:28:23;-3.30;99.90
37356;DHT22;48747;50.250;18.848;2023-03-01T06:30:32;-3.20;99.90
37356;DHT22;48747;50.250;18.848;2023-03-01T06:32:37;-3.20;99.90
37356;DHT22;48747;50.250;18.848;2023-03-01T06:34:46;-3.10;99.90
37356;DHT22;48747;50.250;18.848;2023-03-01T06:43:19;-2.60;99.90
37356;DHT22;48747;50.250;18.848;2023-03-01T06:47:31;-2.50;99.90
37356;DHT22;48747;50.250;18.848;2023-03-01T06:49:36;-2.40;99.90
37356;DHT22;48747;50.250;18.848;2023-03-01T06:51:55;-2.40;99.90
37356;DHT22;48747;50.250;18.848;2023-03-01T06:55:57;-2.20;99.90
37356;DHT22;48747;50.250;18.848;2023-03-01T07:00:19;-1.90;99.90
37356;DHT22;48747;50.250;18.848;2023-03-01T07:02:26;-1.70;99.90
37356;DHT22;48747;50.250;18.848;2023-03-01T07:04:32;-1.60;99.90
37356;DHT22;48747;50.250;18.848;2023-03-01T07:06:42;-1.50;99.90
37356;DHT22;48747;50.250;18.848;2023-03-01T07:08:46;-1.40;99.90
37356;DHT22;48747;50.250;18.848;2023-03-01T07:13:20;-1.20;99.90
37356;DHT22;48747;50.250;18.848;2023-03-01T07:15:13;-1.10;99.90
37356;DHT22;48747;50.250;18.848;2023-03-01T07:22:09;-0.70;99.90
37356;DHT22;48747;50.250;18.848;2023-03-01T07:24:04;-0.60;99.90
37356;DHT22;48747;50.250;18.848;2023-03-01T07:26:20;-0.60;99.90
37356;DHT22;48747;50.250;18.848;2023-03-01T07:30:43;-0.50;99.90
37356;DHT22;48747;50.250;18.848;2023-03-01T07:32:40;-0.40;99.90
37356;DHT22;48747;50.250;18.848;2023-03-01T07:37:04;-0.20;99.90
37356;DHT22;48747;50.250;18.848;2023-03-01T07:41:25;0.10;99.90
37356;DHT22;48747;50.250;18.848;2023-03-01T07:43:35;0.20;99.90
37356;DHT22;48747;50.250;18.848;2023-03-01T07:45:46;0.30;99.90
37356;DHT22;48747;50.250;18.848;2023-03-01T07:47:55;0.40;99.90
37356;DHT22;48747;50.250;18.848;2023-03-01T07:50:00;0.50;99.90
37356;DHT22;48747;50.250;18.848;2023-03-01T07:52:09;0.60;99.90
37356;DHT22;48747;50.250;18.848;2023-03-01T07:54:14;0.70;99.90
37356;DHT22;48747;50.250;18.848;2023-03-01T07:56:23;0.70;99.90
37356;DHT22;48747;50.250;18.848;2023-03-01T07:58:36;0.70;99.90
37356;DHT22;48747;50.250;18.848;2023-03-01T08:00:44;0.80;99.90
37356;DHT22;48747;50.250;18.848;2023-03-01T08:03:07;0.90;99.90
37356;DHT22;48747;50.250;18.848;2023-03-01T08:05:00;0.90;99.90
37356;DHT22;48747;50.250;18.848;2023-03-01T08:07:15;1.10;99.90
37356;DHT22;48747;50.250;18.848;2023-03-01T08:09:16;1.10;99.90
37356;DHT22;48747;50.250;18.848;2023-03-01T08:11:29;1.20;99.90
37356;DHT22;48747;50.250;18.848;2023-03-01T08:13:37;1.30;99.90
37356;DHT22;48747;50.250;18.848;2023-03-01T08:15:49;1.40;99.90
37356;DHT22;48747;50.250;18.848;2023-03-01T08:17:57;1.50;99.90
37356;DHT22;48747;50.250;18.848;2023-03-01T08:19:55;1.60;99.90
37356;DHT22;48747;50.250;18.848;2023-03-01T08:22:11;1.70;99.90
37356;DHT22;48747;50.250;18.848;2023-03-01T08:24:14;1.80;99.90
37356;DHT22;48747;50.250;18.848;2023-03-01T08:26:25;1.80;99.90
37356;DHT22;48747;50.250;18.848;2023-03-01T08:28:33;2.00;99.90
37356;DHT22;48747;50.250;18.848;2023-03-01T08:32:50;2.10;99.60
37356;DHT22;48747;50.250;18.848;2023-03-01T08:34:55;2.20;97.90
37356;DHT22;48747;50.250;18.848;2023-03-01T08:37:06;2.30;96.40
37356;DHT22;48747;50.250;18.848;2023-03-01T08:41:17;2.50;96.60
37356;DHT22;48747;50.250;18.848;2023-03-01T08:43:32;2.50;93.30
37356;DHT22;48747;50.250;18.848;2023-03-01T08:45:44;2.60;93.60
37356;DHT22;48747;50.250;18.848;2023-03-01T08:47:42;2.60;91.50
37356;DHT22;48747;50.250;18.848;2023-03-01T08:49:49;2.60;90.00
37356;DHT22;48747;50.250;18.848;2023-03-01T08:51:57;2.60;87.90
37356;DHT22;48747;50.250;18.848;2023-03-01T08:54:28;2.70;88.60
37356;DHT22;48747;50.250;18.848;2023-03-01T08:56:13;2.70;90.30
37356;DHT22;48747;50.250;18.848;2023-03-01T08:58:17;2.80;90.00
37356;DHT22;48747;50.250;18.848;2023-03-01T09:00:46;2.90;88.60
37356;DHT22;48747;50.250;18.848;2023-03-01T09:02:30;2.90;88.40
37356;DHT22;48747;50.250;18.848;2023-03-01T09:04:38;2.90;87.90
37356;DHT22;48747;50.250;18.848;2023-03-01T09:06:50;3.00;89.10
37356;DHT22;48747;50.250;18.848;2023-03-01T09:09:13;3.10;88.60
37356;DHT22;48747;50.250;18.848;2023-03-01T09:11:05;3.20;87.60
37356;DHT22;48747;50.250;18.848;2023-03-01T09:13:22;3.20;86.90
37356;DHT22;48747;50.250;18.848;2023-03-01T09:15:21;3.30;86.80
37356;DHT22;48747;50.250;18.848;2023-03-01T09:17:27;3.30;86.20
37356;DHT22;48747;50.250;18.848;2023-03-01T09:19:43;3.40;84.70
37356;DHT22;48747;50.250;18.848;2023-03-01T09:26:10;3.50;83.60
37356;DHT22;48747;50.250;18.848;2023-03-01T09:30:28;3.70;84.40
37356;DHT22;48747;50.250;18.848;2023-03-01T09:32:38;3.70;83.40
37356;DHT22;48747;50.250;18.848;2023-03-01T09:37:08;3.80;78.90
37356;DHT22;48747;50.250;18.848;2023-03-01T09:39:18;3.80;78.30
37356;DHT22;48747;50.250;18.848;2023-03-01T09:41:44;3.70;78.00
37356;DHT22;48747;50.250;18.848;2023-03-01T09:44:01;3.80;78.40
37356;DHT22;48747;50.250;18.848;2023-03-01T09:46:13;3.80;78.10
37356;DHT22;48747;50.250;18.848;2023-03-01T09:48:15;3.90;77.80
37356;DHT22;48747;50.250;18.848;2023-03-01T09:50:20;3.90;78.70
37356;DHT22;48747;50.250;18.848;2023-03-01T09:52:29;4.00;78.20
37356;DHT22;48747;50.250;18.848;2023-03-01T09:54:30;4.10;77.80
37356;DHT22;48747;50.250;18.848;2023-03-01T09:56:40;4.10;77.20
37356;DHT22;48747;50.250;18.848;2023-03-01T09:59:13;4.20;76.10
37356;DHT22;48747;50.250;18.848;2023-03-01T10:01:35;4.30;77.70
37356;DHT22;48747;50.250;18.848;2023-03-01T10:03:43;4.30;75.20
37356;DHT22;48747;50.250;18.848;2023-03-01T10:06:15;4.30;75.40
37356;DHT22;48747;50.250;18.848;2023-03-01T10:12:55;4.30;75.00
37356;DHT22;48747;50.250;18.848;2023-03-01T10:19:54;4.60;75.00
37356;DHT22;48747;50.250;18.848;2023-03-01T10:24:31;4.80;72.30
37356;DHT22;48747;50.250;18.848;2023-03-01T10:26:56;4.80;71.30
37356;DHT22;48747;50.250;18.848;2023-03-01T10:29:07;4.70;70.80
37356;DHT22;48747;50.250;18.848;2023-03-01T10:31:16;4.70;71.60
37356;DHT22;48747;50.250;18.848;2023-03-01T10:35:44;4.70;69.60
37356;DHT22;48747;50.250;18.848;2023-03-01T10:40:21;4.70;70.50
37356;DHT22;48747;50.250;18.848;2023-03-01T10:42:50;4.80;69.90
37356;DHT22;48747;50.250;18.848;2023-03-01T10:44:58;4.80;70.40
37356;DHT22;48747;50.250;18.848;2023-03-01T10:47:03;4.80;69.40
37356;DHT22;48747;50.250;18.848;2023-03-01T10:49:19;4.80;69.60
37356;DHT22;48747;50.250;18.848;2023-03-01T10:51:31;4.80;67.90
37356;DHT22;48747;50.250;18.848;2023-03-01T10:53:47;4.90;68.30
37356;DHT22;48747;50.250;18.848;2023-03-01T10:56:14;4.90;69.30
37356;DHT22;48747;50.250;18.848;2023-03-01T11:00:36;5.10;68.50
37356;DHT22;48747;50.250;18.848;2023-03-01T11:03:01;5.00;68.10
37356;DHT22;48747;50.250;18.848;2023-03-01T11:05:19;5.10;68.90
37356;DHT22;48747;50.250;18.848;2023-03-01T11:09:44;5.20;66.40
37356;DHT22;48747;50.250;18.848;2023-03-01T11:12:13;5.30;67.10
37356;DHT22;48747;50.250;18.848;2023-03-01T11:14:12;5.30;68.30
37356;DHT22;48747;50.250;18.848;2023-03-01T11:16:14;5.40;66.90
37356;DHT22;48747;50.250;18.848;2023-03-01T11:18:25;5.40;65.80
37356;DHT22;48747;50.250;18.848;2023-03-01T11:20:35;5.40;66.00
37356;DHT22;48747;50.250;18.848;2023-03-01T11:25:13;5.40;65.80
37356;DHT22;48747;50.250;18.848;2023-03-01T11:27:33;5.40;65.20
37356;DHT22;48747;50.250;18.848;2023-03-01T11:32:00;5.50;66.20
37356;DHT22;48747;50.250;18.848;2023-03-01T11:37:38;5.60;65.40
37356;DHT22;48747;50.250;18.848;2023-03-01T11:39:05;5.60;65.70
37356;DHT22;48747;50.250;18.848;2023-03-01T11:41:10;5.50;65.50
37356;DHT22;48747;50.250;18.848;2023-03-01T11:54:12;5.50;64.80
37356;DHT22;48747;50.250;18.848;2023-03-01T11:55:30;5.50;65.00
37356;DHT22;48747;50.250;18.848;2023-03-01T12:07:08;5.80;65.00
37356;DHT22;48747;50.250;18.848;2023-03-01T12:09:39;5.90;64.10
37356;DHT22;48747;50.250;18.848;2023-03-01T12:14:28;5.90;63.60
37356;DHT22;48747;50.250;18.848;2023-03-01T12:19:11;5.90;64.10
37356;DHT22;48747;50.250;18.848;2023-03-01T12:21:38;5.90;63.20
37356;DHT22;48747;50.250;18.848;2023-03-01T12:28:30;6.10;63.40
37356;DHT22;48747;50.250;18.848;2023-03-01T12:36:32;6.10;60.90
37356;DHT22;48747;50.250;18.848;2023-03-01T12:49:52;6.10;62.10
37356;DHT22;48747;50.250;18.848;2023-03-01T12:52:09;6.20;61.40
37356;DHT22;48747;50.250;18.848;2023-03-01T12:54:15;6.20;62.40
37356;DHT22;48747;50.250;18.848;2023-03-01T12:56:25;6.30;60.40
37356;DHT22;48747;50.250;18.848;2023-03-01T13:08:27;6.40;59.20
37356;DHT22;48747;50.250;18.848;2023-03-01T13:13:02;6.50;59.00
37356;DHT22;48747;50.250;18.848;2023-03-01T13:15:03;6.50;56.90
37356;DHT22;48747;50.250;18.848;2023-03-01T13:17:20;6.50;57.30
37356;DHT22;48747;50.250;18.848;2023-03-01T13:19:22;6.50;57.80
37356;DHT22;48747;50.250;18.848;2023-03-01T13:21:36;6.60;58.30
37356;DHT22;48747;50.250;18.848;2023-03-01T13:23:47;6.70;58.00
37356;DHT22;48747;50.250;18.848;2023-03-01T13:26:13;6.70;57.40
37356;DHT22;48747;50.250;18.848;2023-03-01T13:28:38;6.80;57.40
37356;DHT22;48747;50.250;18.848;2023-03-01T13:30:43;6.80;57.80
37356;DHT22;48747;50.250;18.848;2023-03-01T13:32:59;6.90;58.20
37356;DHT22;48747;50.250;18.848;2023-03-01T13:37:39;6.80;57.90
37356;DHT22;48747;50.250;18.848;2023-03-01T13:39:49;6.80;58.10
37356;DHT22;48747;50.250;18.848;2023-03-01T13:41:58;6.80;57.40
37356;DHT22;48747;50.250;18.848;2023-03-01T13:51:12;7.10;57.00
37356;DHT22;48747;50.250;18.848;2023-03-01T13:55:50;7.10;56.70
37356;DHT22;48747;50.250;18.848;2023-03-01T14:04:48;7.30;57.10
37356;DHT22;48747;50.250;18.848;2023-03-01T14:06:58;7.30;57.50
37356;DHT22;48747;50.250;18.848;2023-03-01T14:20:39;7.30;53.80
37356;DHT22;48747;50.250;18.848;2023-03-01T14:22:39;7.20;53.50
37356;DHT22;48747;50.250;18.848;2023-03-01T14:27:12;7.10;54.40
37356;DHT22;48747;50.250;18.848;2023-03-01T14:29:37;7.10;54.20
37356;DHT22;48747;50.250;18.848;2023-03-01T14:31:41;7.20;52.90
37356;DHT22;48747;50.250;18.848;2023-03-01T14:33:53;7.20;52.40
37356;DHT22;48747;50.250;18.848;2023-03-01T14:35:59;7.20;52.80
37356;DHT22;48747;50.250;18.848;2023-03-01T14:38:27;7.20;51.90
37356;DHT22;48747;50.250;18.848;2023-03-01T14:40:19;7.20;51.00
37356;DHT22;48747;50.250;18.848;2023-03-01T14:42:19;7.20;50.50
37356;DHT22;48747;50.250;18.848;2023-03-01T14:46:36;7.20;50.50
37356;DHT22;48747;50.250;18.848;2023-03-01T14:50:53;7.20;51.70
37356;DHT22;48747;50.250;18.848;2023-03-01T14:53:01;7.20;51.80
37356;DHT22;48747;50.250;18.848;2023-03-01T14:57:27;7.20;52.40
37356;DHT22;48747;50.250;18.848;2023-03-01T14:59:59;7.20;52.90
37356;DHT22;48747;50.250;18.848;2023-03-01T15:01:55;7.10;51.90
37356;DHT22;48747;50.250;18.848;2023-03-01T15:03:58;7.10;52.70
37356;DHT22;48747;50.250;18.848;2023-03-01T15:06:08;7.10;52.20
37356;DHT22;48747;50.250;18.848;2023-03-01T15:10:36;7.00;48.80
37356;DHT22;48747;50.250;18.848;2023-03-01T15:15:18;6.90;48.50
37356;DHT22;48747;50.250;18.848;2023-03-01T15:17:29;6.90;48.70
37356;DHT22;48747;50.250;18.848;2023-03-01T15:26:52;6.70;48.40
37356;DHT22;48747;50.250;18.848;2023-03-01T15:28:18;6.70;47.90
37356;DHT22;48747;50.250;18.848;2023-03-01T15:30:27;6.70;48.70
37356;DHT22;48747;50.250;18.848;2023-03-01T15:32:39;6.60;49.30
37356;DHT22;48747;50.250;18.848;2023-03-01T15:34:54;6.60;49.60
37356;DHT22;48747;50.250;18.848;2023-03-01T15:36:55;6.50;49.90
37356;DHT22;48747;50.250;18.848;2023-03-01T15:46:05;6.30;50.50
37356;DHT22;48747;50.250;18.848;2023-03-01T15:48:23;6.30;51.50
37356;DHT22;48747;50.250;18.848;2023-03-01T15:52:48;6.10;51.90
37356;DHT22;48747;50.250;18.848;2023-03-01T15:54:53;6.00;52.50
37356;DHT22;48747;50.250;18.848;2023-03-01T15:56:58;5.90;53.00
37356;DHT22;48747;50.250;18.848;2023-03-01T15:59:57;5.90;53.30
37356;DHT22;48747;50.250;18.848;2023-03-01T16:01:44;5.80;53.80
37356;DHT22;48747;50.250;18.848;2023-03-01T16:08:09;5.40;55.70
37356;DHT22;48747;50.250;18.848;2023-03-01T16:10:21;5.20;56.30
37356;DHT22;48747;50.250;18.848;2023-03-01T16:12:34;5.10;57.50
37356;DHT22;48747;50.250;18.848;2023-03-01T16:14:41;4.90;57.70
37356;DHT22;48747;50.250;18.848;2023-03-01T16:16:48;4.80;58.10
37356;DHT22;48747;50.250;18.848;2023-03-01T16:18:58;4.80;59.00
37356;DHT22;48747;50.250;18.848;2023-03-01T16:23:39;4.50;59.80
37356;DHT22;48747;50.250;18.848;2023-03-01T16:25:41;4.50;60.30
37356;DHT22;48747;50.250;18.848;2023-03-01T16:28:02;4.40;60.60
37356;DHT22;48747;50.250;18.848;2023-03-01T16:34:28;4.00;62.60
37356;DHT22;48747;50.250;18.848;2023-03-01T16:36:29;3.90;63.10
37356;DHT22;48747;50.250;18.848;2023-03-01T16:38:39;3.80;63.50
37356;DHT22;48747;50.250;18.848;2023-03-01T16:45:03;3.60;64.80
37356;DHT22;48747;50.250;18.848;2023-03-01T16:47:12;3.50;65.40
37356;DHT22;48747;50.250;18.848;2023-03-01T16:49:24;3.40;66.20
37356;DHT22;48747;50.250;18.848;2023-03-01T16:51:38;3.40;66.80
37356;DHT22;48747;50.250;18.848;2023-03-01T16:53:39;3.30;67.20
37356;DHT22;48747;50.250;18.848;2023-03-01T16:57:49;3.20;67.80
37356;DHT22;48747;50.250;18.848;2023-03-01T16:59:56;3.10;67.80
37356;DHT22;48747;50.250;18.848;2023-03-01T17:02:08;3.10;68.00
37356;DHT22;48747;50.250;18.848;2023-03-01T17:06:33;3.00;69.50
37356;DHT22;48747;50.250;18.848;2023-03-01T17:08:44;2.90;69.50
37356;DHT22;48747;50.250;18.848;2023-03-01T17:13:19;2.80;70.40
37356;DHT22;48747;50.250;18.848;2023-03-01T17:15:19;2.80;71.10
37356;DHT22;48747;50.250;18.848;2023-03-01T17:17:24;2.70;71.40
37356;DHT22;48747;50.250;18.848;2023-03-01T17:19:33;2.70;72.30
37356;DHT22;48747;50.250;18.848;2023-03-01T17:24:05;2.60;73.60
37356;DHT22;48747;50.250;18.848;2023-03-01T17:26:33;2.50;73.50
37356;DHT22;48747;50.250;18.848;2023-03-01T17:28:26;2.50;73.60
37356;DHT22;48747;50.250;18.848;2023-03-01T17:30:25;2.40;74.00
37356;DHT22;48747;50.250;18.848;2023-03-01T17:32:34;2.40;74.50
37356;DHT22;48747;50.250;18.848;2023-03-01T17:37:01;2.40;75.50
37356;DHT22;48747;50.250;18.848;2023-03-01T17:39:00;2.40;73.80
37356;DHT22;48747;50.250;18.848;2023-03-01T17:41:12;2.40;73.80
37356;DHT22;48747;50.250;18.848;2023-03-01T17:45:47;2.30;75.50
37356;DHT22;48747;50.250;18.848;2023-03-01T17:49:51;2.20;76.50
37356;DHT22;48747;50.250;18.848;2023-03-01T17:54:21;2.10;80.00
37356;DHT22;48747;50.250;18.848;2023-03-01T17:56:31;2.10;80.10
37356;DHT22;48747;50.250;18.848;2023-03-01T17:58:37;2.00;82.80
37356;DHT22;48747;50.250;18.848;2023-03-01T18:00:48;2.00;82.40
37356;DHT22;48747;50.250;18.848;2023-03-01T18:02:54;1.90;82.90
37356;DHT22;48747;50.250;18.848;2023-03-01T18:05:05;1.90;82.80
37356;DHT22;48747;50.250;18.848;2023-03-01T18:09:18;2.00;81.20
37356;DHT22;48747;50.250;18.848;2023-03-01T18:11:24;2.00;80.10
37356;DHT22;48747;50.250;18.848;2023-03-01T18:13:31;2.00;80.40
37356;DHT22;48747;50.250;18.848;2023-03-01T18:15:38;2.00;78.90
37356;DHT22;48747;50.250;18.848;2023-03-01T18:17:46;2.10;79.70
37356;DHT22;48747;50.250;18.848;2023-03-01T18:19:47;2.10;80.60
37356;DHT22;48747;50.250;18.848;2023-03-01T18:21:54;2.10;81.30
37356;DHT22;48747;50.250;18.848;2023-03-01T18:24:01;2.10;81.50
37356;DHT22;48747;50.250;18.848;2023-03-01T18:26:12;2.00;80.70
37356;DHT22;48747;50.250;18.848;2023-03-01T18:28:18;2.10;79.20
37356;DHT22;48747;50.250;18.848;2023-03-01T18:30:25;2.10;79.90
37356;DHT22;48747;50.250;18.848;2023-03-01T18:32:34;2.10;78.40
37356;DHT22;48747;50.250;18.848;2023-03-01T18:34:55;2.20;78.70
37356;DHT22;48747;50.250;18.848;2023-03-01T18:37:00;2.20;77.20
37356;DHT22;48747;50.250;18.848;2023-03-01T18:39:14;2.20;77.10
37356;DHT22;48747;50.250;18.848;2023-03-01T18:41:22;2.20;78.80
37356;DHT22;48747;50.250;18.848;2023-03-01T18:43:33;2.10;79.40